sensor_id;sensor_type;location;lat;lon;timestamp;P1;durP1;ratioP1;P2;durP2;ratioP2
7685;SDS011;3885;51.474;-2.576;2022-07-29T00:01:30;2.27;;;2.07;;
7685;SDS011;3885;51.474;-2.576;2022-07-29T00:03:57;4.83;;;3.00;;
7685;SDS011;3885;51.474;-2.576;2022-07-29T00:06:24;4.30;;;2.73;;
7685;SDS011;3885;51.474;-2.576;2022-07-29T00:08:51;6.13;;;3.13;;
7685;SDS011;3885;51.474;-2.576;2022-07-29T00:11:19;6.60;;;3.30;;
7685;SDS011;3885;51.474;-2.576;2022-07-29T00:13:46;2.73;;;2.53;;
7685;SDS011;3885;51.474;-2.576;2022-07-29T00:16:13;3.87;;;2.53;;
7685;SDS011;3885;51.474;-2.576;2022-07-29T00:18:40;2.70;;;2.27;;
7685;SDS011;3885;51.474;-2.576;2022-07-29T00:21:07;4.70;;;2.93;;
7685;SDS011;3885;51.474;-2.576;2022-07-29T00:23:33;3.60;;;3.30;;
7685;SDS011;3885;51.474;-2.576;2022-07-29T00:26:00;3.73;;;2.40;;
7685;SDS011;3885;51.474;-2.576;2022-07-29T00:28:29;4.30;;;2.07;;
7685;SDS011;3885;51.474;-2.576;2022-07-29T00:30:56;6.87;;;3.10;;
7685;SDS011;3885;51.474;-2.576;2022-07-29T00:33:22;6.00;;;2.40;;
7685;SDS011;3885;51.474;-2.576;2022-07-29T00:35:49;2.30;;;2.20;;
7685;SDS011;3885;51.474;-2.576;2022-07-29T00:38:16;2.37;;;1.97;;
7685;SDS011;3885;51.474;-2.576;2022-07-29T00:40:45;5.37;;;2.83;;
7685;SDS011;3885;51.474;-2.576;2022-07-29T00:43:12;4.67;;;2.53;;
7685;SDS011;3885;51.474;-2.576;2022-07-29T00:45:41;3.43;;;2.33;;
7685;SDS011;3885;51.474;-2.576;2022-07-29T00:48:09;3.00;;;2.20;;
7685;SDS011;3885;51.474;-2.576;2022-07-29T00:50:36;3.27;;;2.50;;
7685;SDS011;3885;51.474;-2.576;2022-07-29T00:53:04;2.50;;;2.30;;
7685;SDS011;3885;51.474;-2.576;2022-07-29T00:55:32;2.73;;;2.30;;
7685;SDS011;3885;51.474;-2.576;2022-07-29T00:58:00;3.10;;;2.33;;
7685;SDS011;3885;51.474;-2.576;2022-07-29T01:00:27;5.43;;;2.93;;
7685;SDS011;3885;51.474;-2.576;2022-07-29T01:02:56;2.50;;;2.13;;
7685;SDS011;3885;51.474;-2.576;2022-07-29T01:05:24;3.43;;;2.57;;
7685;SDS011;3885;51.474;-2.576;2022-07-29T01:07:54;2.40;;;2.20;;
7685;SDS011;3885;51.474;-2.576;2022-07-29T01:10:22;3.30;;;2.20;;
7685;SDS011;3885;51.474;-2.576;2022-07-29T01:12:51;3.13;;;2.30;;
7685;SDS011;3885;51.474;-2.576;2022-07-29T01:15:20;5.57;;;2.30;;
7685;SDS011;3885;51.474;-2.576;2022-07-29T01:17:50;3.93;;;2.80;;
7685;SDS011;3885;51.474;-2.576;2022-07-29T01:20:26;2.00;;;1.80;;
7685;SDS011;3885;51.474;-2.576;2022-07-29T01:26:22;2.90;;;2.00;;
7685;SDS011;3885;51.474;-2.576;2022-07-29T01:29:03;3.37;;;2.23;;
7685;SDS011;3885;51.474;-2.576;2022-07-29T01:31:38;3.50;;;2.90;;
7685;SDS011;3885;51.474;-2.576;2022-07-29T01:34:11;3.00;;;2.17;;
7685;SDS011;3885;51.474;-2.576;2022-07-29T01:36:45;2.43;;;2.23;;
7685;SDS011;3885;51.474;-2.576;2022-07-29T01:39:16;2.93;;;2.70;;
7685;SDS011;3885;51.474;-2.576;2022-07-29T01:41:48;2.70;;;2.27;;
7685;SDS011;3885;51.474;-2.576;2022-07-29T01:44:22;3.90;;;2.20;;
7685;SDS011;3885;51.474;-2.576;2022-07-29T01:46:57;8.07;;;2.67;;
7685;SDS011;3885;51.474;-2.576;2022-07-29T01:49:28;5.13;;;2.63;;
7685;SDS011;3885;51.474;-2.576;2022-07-29T01:52:01;2.37;;;2.20;;
7685;SDS011;3885;51.474;-2.576;2022-07-29T01:54:34;2.30;;;2.10;;
7685;SDS011;3885;51.474;-2.576;2022-07-29T01:57:08;5.17;;;2.60;;
7685;SDS011;3885;51.474;-2.576;2022-07-29T01:59:38;5.33;;;2.50;;
7685;SDS011;3885;51.474;-2.576;2022-07-29T02:02:08;4.30;;;2.23;;
7685;SDS011;3885;51.474;-2.576;2022-07-29T02:04:35;2.07;;;1.97;;
7685;SDS011;3885;51.474;-2.576;2022-07-29T02:07:04;2.30;;;1.90;;
7685;SDS011;3885;51.474;-2.576;2022-07-29T02:09:34;2.50;;;2.20;;
7685;SDS011;3885;51.474;-2.576;2022-07-29T02:12:03;2.63;;;2.23;;
7685;SDS011;3885;51.474;-2.576;2022-07-29T02:14:32;2.40;;;2.20;;
7685;SDS011;3885;51.474;-2.576;2022-07-29T02:17:03;3.40;;;2.60;;
7685;SDS011;3885;51.474;-2.576;2022-07-29T02:19:31;2.90;;;2.07;;
7685;SDS011;3885;51.474;-2.576;2022-07-29T02:21:58;2.63;;;2.40;;
7685;SDS011;3885;51.474;-2.576;2022-07-29T02:24:27;2.50;;;2.03;;
7685;SDS011;3885;51.474;-2.576;2022-07-29T02:26:56;5.03;;;2.60;;
7685;SDS011;3885;51.474;-2.576;2022-07-29T02:29:24;2.87;;;2.20;;
7685;SDS011;3885;51.474;-2.576;2022-07-29T02:31:53;4.23;;;2.33;;
7685;SDS011;3885;51.474;-2.576;2022-07-29T02:34:24;2.40;;;2.20;;
7685;SDS011;3885;51.474;-2.576;2022-07-29T02:36:51;4.93;;;2.60;;
7685;SDS011;3885;51.474;-2.576;2022-07-29T02:39:20;1.83;;;1.73;;
7685;SDS011;3885;51.474;-2.576;2022-07-29T02:41:50;2.37;;;2.17;;
7685;SDS011;3885;51.474;-2.576;2022-07-29T02:44:18;3.57;;;2.10;;
7685;SDS011;3885;51.474;-2.576;2022-07-29T02:46:49;2.70;;;2.17;;
7685;SDS011;3885;51.474;-2.576;2022-07-29T02:49:23;7.33;;;2.33;;
7685;SDS011;3885;51.474;-2.576;2022-07-29T02:51:59;3.57;;;2.13;;
7685;SDS011;3885;51.474;-2.576;2022-07-29T02:54:31;3.10;;;2.13;;
7685;SDS011;3885;51.474;-2.576;2022-07-29T02:57:05;2.77;;;2.30;;
7685;SDS011;3885;51.474;-2.576;2022-07-29T02:59:37;4.53;;;2.53;;
7685;SDS011;3885;51.474;-2.576;2022-07-29T03:02:08;5.27;;;3.20;;
7685;SDS011;3885;51.474;-2.576;2022-07-29T03:04:38;4.40;;;2.90;;
7685;SDS011;3885;51.474;-2.576;2022-07-29T03:07:07;3.83;;;2.57;;
7685;SDS011;3885;51.474;-2.576;2022-07-29T03:09:36;3.03;;;2.70;;
7685;SDS011;3885;51.474;-2.576;2022-07-29T03:12:04;2.80;;;2.10;;
7685;SDS011;3885;51.474;-2.576;2022-07-29T03:14:32;3.00;;;2.70;;
7685;SDS011;3885;51.474;-2.576;2022-07-29T03:16:59;2.17;;;2.00;;
7685;SDS011;3885;51.474;-2.576;2022-07-29T03:19:27;3.00;;;2.80;;
7685;SDS011;3885;51.474;-2.576;2022-07-29T03:21:56;2.33;;;2.07;;
7685;SDS011;3885;51.474;-2.576;2022-07-29T03:24:24;2.73;;;2.27;;
7685;SDS011;3885;51.474;-2.576;2022-07-29T03:26:52;3.27;;;2.87;;
7685;SDS011;3885;51.474;-2.576;2022-07-29T03:29:20;4.83;;;3.00;;
7685;SDS011;3885;51.474;-2.576;2022-07-29T03:31:47;3.00;;;2.57;;
7685;SDS011;3885;51.474;-2.576;2022-07-29T03:34:14;3.47;;;3.10;;
7685;SDS011;3885;51.474;-2.576;2022-07-29T03:36:41;3.10;;;2.80;;
7685;SDS011;3885;51.474;-2.576;2022-07-29T03:39:09;2.80;;;2.60;;
7685;SDS011;3885;51.474;-2.576;2022-07-29T03:41:38;6.90;;;2.90;;
7685;SDS011;3885;51.474;-2.576;2022-07-29T03:44:06;5.07;;;2.87;;
7685;SDS011;3885;51.474;-2.576;2022-07-29T03:46:35;3.17;;;2.30;;
7685;SDS011;3885;51.474;-2.576;2022-07-29T03:49:03;4.10;;;2.80;;
7685;SDS011;3885;51.474;-2.576;2022-07-29T03:51:33;2.97;;;2.30;;
7685;SDS011;3885;51.474;-2.576;2022-07-29T03:54:00;3.07;;;2.70;;
7685;SDS011;3885;51.474;-2.576;2022-07-29T03:56:29;2.83;;;2.60;;
7685;SDS011;3885;51.474;-2.576;2022-07-29T03:58:58;6.03;;;3.43;;
7685;SDS011;3885;51.474;-2.576;2022-07-29T04:01:27;3.13;;;2.50;;
7685;SDS011;3885;51.474;-2.576;2022-07-29T04:03:54;3.63;;;3.10;;
7685;SDS011;3885;51.474;-2.576;2022-07-29T04:06:22;3.53;;;2.40;;
7685;SDS011;3885;51.474;-2.576;2022-07-29T04:08:50;6.13;;;2.50;;
7685;SDS011;3885;51.474;-2.576;2022-07-29T04:11:17;3.17;;;2.87;;
7685;SDS011;3885;51.474;-2.576;2022-07-29T04:13:46;2.20;;;2.00;;
7685;SDS011;3885;51.474;-2.576;2022-07-29T04:16:13;4.53;;;2.80;;
7685;SDS011;3885;51.474;-2.576;2022-07-29T04:18:40;4.30;;;3.13;;
7685;SDS011;3885;51.474;-2.576;2022-07-29T04:21:07;3.83;;;2.80;;
7685;SDS011;3885;51.474;-2.576;2022-07-29T04:23:33;5.13;;;3.60;;
7685;SDS011;3885;51.474;-2.576;2022-07-29T04:26:00;4.50;;;2.53;;
7685;SDS011;3885;51.474;-2.576;2022-07-29T04:28:27;6.80;;;2.87;;
7685;SDS011;3885;51.474;-2.576;2022-07-29T04:30:56;3.60;;;3.30;;
7685;SDS011;3885;51.474;-2.576;2022-07-29T04:33:23;2.90;;;2.70;;
7685;SDS011;3885;51.474;-2.576;2022-07-29T04:35:49;5.00;;;3.07;;
7685;SDS011;3885;51.474;-2.576;2022-07-29T04:38:16;2.60;;;2.40;;
7685;SDS011;3885;51.474;-2.576;2022-07-29T04:40:43;3.10;;;2.80;;
7685;SDS011;3885;51.474;-2.576;2022-07-29T04:43:10;4.90;;;2.97;;
7685;SDS011;3885;51.474;-2.576;2022-07-29T04:45:37;8.27;;;3.30;;
7685;SDS011;3885;51.474;-2.576;2022-07-29T04:48:05;4.97;;;3.17;;
7685;SDS011;3885;51.474;-2.576;2022-07-29T04:50:32;3.20;;;2.90;;
7685;SDS011;3885;51.474;-2.576;2022-07-29T04:52:59;3.37;;;2.50;;
7685;SDS011;3885;51.474;-2.576;2022-07-29T04:55:26;11.30;;;3.00;;
7685;SDS011;3885;51.474;-2.576;2022-07-29T04:57:53;3.10;;;2.80;;
7685;SDS011;3885;51.474;-2.576;2022-07-29T05:00:20;6.07;;;3.40;;
7685;SDS011;3885;51.474;-2.576;2022-07-29T05:02:48;4.80;;;3.03;;
7685;SDS011;3885;51.474;-2.576;2022-07-29T05:05:16;7.63;;;4.50;;
7685;SDS011;3885;51.474;-2.576;2022-07-29T05:07:43;7.33;;;2.90;;
7685;SDS011;3885;51.474;-2.576;2022-07-29T05:10:10;3.50;;;2.83;;
7685;SDS011;3885;51.474;-2.576;2022-07-29T05:12:37;6.37;;;3.30;;
7685;SDS011;3885;51.474;-2.576;2022-07-29T05:15:05;7.67;;;3.77;;
7685;SDS011;3885;51.474;-2.576;2022-07-29T05:17:32;3.97;;;3.57;;
7685;SDS011;3885;51.474;-2.576;2022-07-29T05:19:59;9.87;;;3.60;;
7685;SDS011;3885;51.474;-2.576;2022-07-29T05:22:28;4.77;;;3.30;;
7685;SDS011;3885;51.474;-2.576;2022-07-29T05:24:55;4.07;;;2.63;;
7685;SDS011;3885;51.474;-2.576;2022-07-29T05:27:21;3.03;;;2.73;;
7685;SDS011;3885;51.474;-2.576;2022-07-29T05:29:48;3.97;;;3.00;;
7685;SDS011;3885;51.474;-2.576;2022-07-29T05:32:15;4.50;;;3.30;;
7685;SDS011;3885;51.474;-2.576;2022-07-29T05:34:42;4.93;;;3.27;;
7685;SDS011;3885;51.474;-2.576;2022-07-29T05:37:09;4.43;;;2.83;;
7685;SDS011;3885;51.474;-2.576;2022-07-29T05:39:39;5.33;;;3.40;;
7685;SDS011;3885;51.474;-2.576;2022-07-29T05:42:07;5.47;;;2.63;;
7685;SDS011;3885;51.474;-2.576;2022-07-29T05:44:35;3.33;;;2.77;;
7685;SDS011;3885;51.474;-2.576;2022-07-29T05:47:03;2.60;;;2.40;;
7685;SDS011;3885;51.474;-2.576;2022-07-29T05:49:30;7.67;;;3.47;;
7685;SDS011;3885;51.474;-2.576;2022-07-29T05:51:57;3.80;;;2.90;;
7685;SDS011;3885;51.474;-2.576;2022-07-29T05:54:24;8.70;;;3.60;;
7685;SDS011;3885;51.474;-2.576;2022-07-29T05:56:52;3.10;;;2.80;;
7685;SDS011;3885;51.474;-2.576;2022-07-29T05:59:19;4.00;;;3.43;;
7685;SDS011;3885;51.474;-2.576;2022-07-29T06:01:46;4.60;;;2.97;;
7685;SDS011;3885;51.474;-2.576;2022-07-29T06:04:13;2.90;;;2.63;;
7685;SDS011;3885;51.474;-2.576;2022-07-29T06:06:40;6.30;;;3.33;;
7685;SDS011;3885;51.474;-2.576;2022-07-29T06:09:07;3.10;;;2.80;;
7685;SDS011;3885;51.474;-2.576;2022-07-29T06:11:33;11.67;;;3.73;;
7685;SDS011;3885;51.474;-2.576;2022-07-29T06:14:02;3.20;;;2.90;;
7685;SDS011;3885;51.474;-2.576;2022-07-29T06:16:29;3.60;;;3.30;;
7685;SDS011;3885;51.474;-2.576;2022-07-29T06:18:56;4.03;;;2.70;;
7685;SDS011;3885;51.474;-2.576;2022-07-29T06:21:22;3.40;;;3.10;;
7685;SDS011;3885;51.474;-2.576;2022-07-29T06:23:50;3.67;;;3.27;;
7685;SDS011;3885;51.474;-2.576;2022-07-29T06:26:16;4.70;;;3.53;;
7685;SDS011;3885;51.474;-2.576;2022-07-29T06:28:43;6.50;;;3.37;;
7685;SDS011;3885;51.474;-2.576;2022-07-29T06:31:12;4.23;;;2.83;;
7685;SDS011;3885;51.474;-2.576;2022-07-29T06:33:39;3.93;;;2.83;;
7685;SDS011;3885;51.474;-2.576;2022-07-29T06:36:06;5.90;;;3.13;;
7685;SDS011;3885;51.474;-2.576;2022-07-29T06:38:33;6.00;;;3.27;;
7685;SDS011;3885;51.474;-2.576;2022-07-29T06:41:00;5.00;;;3.37;;
7685;SDS011;3885;51.474;-2.576;2022-07-29T06:43:28;7.13;;;3.23;;
7685;SDS011;3885;51.474;-2.576;2022-07-29T06:45:59;2.80;;;2.60;;
7685;SDS011;3885;51.474;-2.576;2022-07-29T06:48:28;3.07;;;2.50;;
7685;SDS011;3885;51.474;-2.576;2022-07-29T06:50:55;4.90;;;3.30;;
7685;SDS011;3885;51.474;-2.576;2022-07-29T06:53:22;8.50;;;2.23;;
7685;SDS011;3885;51.474;-2.576;2022-07-29T06:55:49;3.63;;;2.67;;
7685;SDS011;3885;51.474;-2.576;2022-07-29T06:58:16;4.53;;;2.80;;
7685;SDS011;3885;51.474;-2.576;2022-07-29T07:00:45;3.53;;;2.63;;
7685;SDS011;3885;51.474;-2.576;2022-07-29T07:03:12;3.87;;;2.30;;
7685;SDS011;3885;51.474;-2.576;2022-07-29T07:05:41;3.10;;;2.40;;
7685;SDS011;3885;51.474;-2.576;2022-07-29T07:08:08;8.47;;;2.47;;
7685;SDS011;3885;51.474;-2.576;2022-07-29T07:10:35;3.70;;;1.90;;
7685;SDS011;3885;51.474;-2.576;2022-07-29T07:13:02;5.67;;;2.70;;
7685;SDS011;3885;51.474;-2.576;2022-07-29T07:15:29;2.20;;;1.80;;
7685;SDS011;3885;51.474;-2.576;2022-07-29T07:17:56;2.43;;;2.23;;
7685;SDS011;3885;51.474;-2.576;2022-07-29T07:20:23;4.83;;;2.67;;
7685;SDS011;3885;51.474;-2.576;2022-07-29T07:22:51;2.60;;;1.87;;
7685;SDS011;3885;51.474;-2.576;2022-07-29T07:25:18;2.93;;;2.13;;
7685;SDS011;3885;51.474;-2.576;2022-07-29T07:27:45;10.83;;;1.87;;
7685;SDS011;3885;51.474;-2.576;2022-07-29T07:30:12;3.23;;;1.53;;
7685;SDS011;3885;51.474;-2.576;2022-07-29T07:32:39;1.50;;;1.40;;
7685;SDS011;3885;51.474;-2.576;2022-07-29T07:35:07;2.00;;;1.80;;
7685;SDS011;3885;51.474;-2.576;2022-07-29T07:37:35;1.67;;;1.57;;
7685;SDS011;3885;51.474;-2.576;2022-07-29T07:40:04;5.17;;;1.93;;
7685;SDS011;3885;51.474;-2.576;2022-07-29T07:42:31;7.43;;;1.93;;
7685;SDS011;3885;51.474;-2.576;2022-07-29T07:44:59;2.80;;;1.70;;
7685;SDS011;3885;51.474;-2.576;2022-07-29T07:47:26;2.00;;;1.37;;
7685;SDS011;3885;51.474;-2.576;2022-07-29T07:49:53;6.93;;;1.60;;
7685;SDS011;3885;51.474;-2.576;2022-07-29T07:52:21;1.37;;;1.27;;
7685;SDS011;3885;51.474;-2.576;2022-07-29T07:54:48;3.13;;;1.10;;
7685;SDS011;3885;51.474;-2.576;2022-07-29T07:57:17;6.20;;;1.37;;
7685;SDS011;3885;51.474;-2.576;2022-07-29T07:59:43;2.40;;;1.00;;
7685;SDS011;3885;51.474;-2.576;2022-07-29T08:02:10;4.27;;;1.33;;
7685;SDS011;3885;51.474;-2.576;2022-07-29T08:04:37;2.40;;;1.23;;
7685;SDS011;3885;51.474;-2.576;2022-07-29T08:07:05;3.00;;;1.20;;
7685;SDS011;3885;51.474;-2.576;2022-07-29T08:09:33;2.00;;;1.30;;
7685;SDS011;3885;51.474;-2.576;2022-07-29T08:12:00;3.33;;;1.60;;
7685;SDS011;3885;51.474;-2.576;2022-07-29T08:14:30;2.80;;;1.40;;
7685;SDS011;3885;51.474;-2.576;2022-07-29T08:16:57;3.10;;;1.67;;
7685;SDS011;3885;51.474;-2.576;2022-07-29T08:19:24;3.17;;;1.00;;
7685;SDS011;3885;51.474;-2.576;2022-07-29T08:21:51;1.73;;;1.63;;
7685;SDS011;3885;51.474;-2.576;2022-07-29T08:24:18;1.63;;;1.23;;
7685;SDS011;3885;51.474;-2.576;2022-07-29T08:27:03;4.37;;;1.30;;
7685;SDS011;3885;51.474;-2.576;2022-07-29T08:29:31;3.97;;;3.67;;
7685;SDS011;3885;51.474;-2.576;2022-07-29T08:31:58;2.00;;;1.63;;
7685;SDS011;3885;51.474;-2.576;2022-07-29T08:34:25;4.93;;;1.43;;
7685;SDS011;3885;51.474;-2.576;2022-07-29T08:36:52;1.10;;;1.00;;
7685;SDS011;3885;51.474;-2.576;2022-07-29T08:39:19;1.73;;;1.10;;
7685;SDS011;3885;51.474;-2.576;2022-07-29T08:41:46;1.47;;;1.17;;
7685;SDS011;3885;51.474;-2.576;2022-07-29T08:44:13;2.60;;;1.67;;
7685;SDS011;3885;51.474;-2.576;2022-07-29T08:46:43;3.83;;;1.30;;
7685;SDS011;3885;51.474;-2.576;2022-07-29T08:49:10;2.80;;;1.40;;
7685;SDS011;3885;51.474;-2.576;2022-07-29T08:51:38;1.47;;;1.37;;
7685;SDS011;3885;51.474;-2.576;2022-07-29T08:54:06;2.07;;;0.97;;
7685;SDS011;3885;51.474;-2.576;2022-07-29T08:56:35;5.50;;;1.67;;
7685;SDS011;3885;51.474;-2.576;2022-07-29T08:59:03;3.00;;;1.63;;
7685;SDS011;3885;51.474;-2.576;2022-07-29T09:01:32;4.20;;;1.40;;
7685;SDS011;3885;51.474;-2.576;2022-07-29T09:04:05;2.33;;;1.90;;
7685;SDS011;3885;51.474;-2.576;2022-07-29T09:06:37;1.57;;;1.20;;
7685;SDS011;3885;51.474;-2.576;2022-07-29T09:09:08;2.40;;;1.43;;
7685;SDS011;3885;51.474;-2.576;2022-07-29T09:11:35;1.90;;;1.60;;
7685;SDS011;3885;51.474;-2.576;2022-07-29T09:14:02;3.07;;;1.13;;
7685;SDS011;3885;51.474;-2.576;2022-07-29T09:16:43;10.70;;;1.50;;
7685;SDS011;3885;51.474;-2.576;2022-07-29T09:19:20;1.47;;;1.23;;
7685;SDS011;3885;51.474;-2.576;2022-07-29T09:21:48;2.10;;;1.60;;
7685;SDS011;3885;51.474;-2.576;2022-07-29T09:24:24;3.23;;;1.70;;
7685;SDS011;3885;51.474;-2.576;2022-07-29T09:26:52;1.30;;;1.20;;
7685;SDS011;3885;51.474;-2.576;2022-07-29T09:29:20;4.73;;;1.37;;
7685;SDS011;3885;51.474;-2.576;2022-07-29T09:31:49;7.20;;;1.93;;
7685;SDS011;3885;51.474;-2.576;2022-07-29T09:34:22;1.80;;;1.20;;
7685;SDS011;3885;51.474;-2.576;2022-07-29T09:36:50;2.60;;;1.20;;
7685;SDS011;3885;51.474;-2.576;2022-07-29T09:39:28;3.37;;;1.33;;
7685;SDS011;3885;51.474;-2.576;2022-07-29T09:41:56;3.50;;;1.23;;
7685;SDS011;3885;51.474;-2.576;2022-07-29T09:44:25;2.53;;;1.33;;
7685;SDS011;3885;51.474;-2.576;2022-07-29T09:47:00;0.87;;;0.87;;
7685;SDS011;3885;51.474;-2.576;2022-07-29T09:49:32;1.67;;;1.20;;
7685;SDS011;3885;51.474;-2.576;2022-07-29T09:52:04;2.73;;;1.57;;
7685;SDS011;3885;51.474;-2.576;2022-07-29T09:54:32;2.50;;;1.60;;
7685;SDS011;3885;51.474;-2.576;2022-07-29T09:57:03;5.53;;;1.90;;
7685;SDS011;3885;51.474;-2.576;2022-07-29T09:59:31;8.97;;;1.47;;
7685;SDS011;3885;51.474;-2.576;2022-07-29T10:01:58;1.43;;;1.10;;
7685;SDS011;3885;51.474;-2.576;2022-07-29T10:04:37;5.83;;;1.57;;
7685;SDS011;3885;51.474;-2.576;2022-07-29T10:07:05;4.47;;;1.50;;
7685;SDS011;3885;51.474;-2.576;2022-07-29T10:09:33;1.20;;;1.00;;
7685;SDS011;3885;51.474;-2.576;2022-07-29T10:12:04;2.90;;;0.80;;
7685;SDS011;3885;51.474;-2.576;2022-07-29T10:14:33;1.30;;;1.20;;
7685;SDS011;3885;51.474;-2.576;2022-07-29T10:17:01;3.63;;;1.30;;
7685;SDS011;3885;51.474;-2.576;2022-07-29T10:19:29;2.40;;;1.20;;
7685;SDS011;3885;51.474;-2.576;2022-07-29T10:21:59;6.93;;;1.40;;
7685;SDS011;3885;51.474;-2.576;2022-07-29T10:24:27;1.13;;;1.03;;
7685;SDS011;3885;51.474;-2.576;2022-07-29T10:26:55;2.87;;;1.37;;
7685;SDS011;3885;51.474;-2.576;2022-07-29T10:29:23;2.50;;;1.20;;
7685;SDS011;3885;51.474;-2.576;2022-07-29T10:31:53;4.23;;;1.90;;
7685;SDS011;3885;51.474;-2.576;2022-07-29T10:34:35;3.80;;;1.73;;
7685;SDS011;3885;51.474;-2.576;2022-07-29T10:37:18;1.83;;;1.20;;
7685;SDS011;3885;51.474;-2.576;2022-07-29T10:39:53;2.43;;;1.13;;
7685;SDS011;3885;51.474;-2.576;2022-07-29T10:42:27;1.83;;;0.80;;
7685;SDS011;3885;51.474;-2.576;2022-07-29T10:44:55;2.77;;;1.70;;
7685;SDS011;3885;51.474;-2.576;2022-07-29T10:47:23;1.63;;;1.37;;
7685;SDS011;3885;51.474;-2.576;2022-07-29T10:49:57;1.73;;;1.20;;
7685;SDS011;3885;51.474;-2.576;2022-07-29T10:52:39;1.90;;;0.93;;
7685;SDS011;3885;51.474;-2.576;2022-07-29T10:55:34;2.67;;;1.30;;
7685;SDS011;3885;51.474;-2.576;2022-07-29T10:58:12;1.47;;;1.37;;
7685;SDS011;3885;51.474;-2.576;2022-07-29T11:00:43;1.93;;;1.10;;
7685;SDS011;3885;51.474;-2.576;2022-07-29T11:03:25;3.73;;;1.73;;
7685;SDS011;3885;51.474;-2.576;2022-07-29T11:06:10;1.13;;;1.00;;
7685;SDS011;3885;51.474;-2.576;2022-07-29T11:08:39;3.83;;;1.67;;
7685;SDS011;3885;51.474;-2.576;2022-07-29T11:14:01;1.43;;;1.00;;
7685;SDS011;3885;51.474;-2.576;2022-07-29T11:16:57;1.13;;;0.93;;
7685;SDS011;3885;51.474;-2.576;2022-07-29T11:19:29;1.10;;;0.90;;
7685;SDS011;3885;51.474;-2.576;2022-07-29T11:21:57;2.30;;;1.20;;
7685;SDS011;3885;51.474;-2.576;2022-07-29T11:24:26;4.20;;;1.47;;
7685;SDS011;3885;51.474;-2.576;2022-07-29T11:27:06;2.20;;;0.90;;
7685;SDS011;3885;51.474;-2.576;2022-07-29T11:29:48;2.10;;;1.47;;
7685;SDS011;3885;51.474;-2.576;2022-07-29T11:32:17;0.90;;;0.90;;
7685;SDS011;3885;51.474;-2.576;2022-07-29T11:34:45;1.37;;;1.20;;
7685;SDS011;3885;51.474;-2.576;2022-07-29T11:37:20;1.50;;;0.73;;
7685;SDS011;3885;51.474;-2.576;2022-07-29T11:42:42;5.17;;;1.60;;
7685;SDS011;3885;51.474;-2.576;2022-07-29T11:45:11;1.53;;;0.90;;
7685;SDS011;3885;51.474;-2.576;2022-07-29T11:47:40;1.40;;;1.23;;
7685;SDS011;3885;51.474;-2.576;2022-07-29T11:50:13;1.10;;;1.00;;
7685;SDS011;3885;51.474;-2.576;2022-07-29T11:52:43;5.17;;;1.10;;
7685;SDS011;3885;51.474;-2.576;2022-07-29T11:55:12;1.73;;;1.00;;
7685;SDS011;3885;51.474;-2.576;2022-07-29T11:57:46;1.43;;;1.30;;
7685;SDS011;3885;51.474;-2.576;2022-07-29T12:00:20;2.57;;;0.80;;
7685;SDS011;3885;51.474;-2.576;2022-07-29T12:02:52;0.70;;;0.70;;
7685;SDS011;3885;51.474;-2.576;2022-07-29T12:05:19;2.63;;;1.00;;
7685;SDS011;3885;51.474;-2.576;2022-07-29T12:07:47;1.80;;;0.83;;
7685;SDS011;3885;51.474;-2.576;2022-07-29T12:10:15;1.60;;;0.80;;
7685;SDS011;3885;51.474;-2.576;2022-07-29T12:12:42;0.97;;;0.83;;
7685;SDS011;3885;51.474;-2.576;2022-07-29T12:15:18;2.83;;;1.00;;
7685;SDS011;3885;51.474;-2.576;2022-07-29T12:17:46;0.90;;;0.90;;
7685;SDS011;3885;51.474;-2.576;2022-07-29T12:20:13;2.33;;;1.23;;
7685;SDS011;3885;51.474;-2.576;2022-07-29T12:22:49;1.00;;;0.90;;
7685;SDS011;3885;51.474;-2.576;2022-07-29T12:25:20;5.53;;;1.67;;
7685;SDS011;3885;51.474;-2.576;2022-07-29T12:27:51;15.33;;;1.30;;
7685;SDS011;3885;51.474;-2.576;2022-07-29T12:30:33;3.83;;;1.17;;
7685;SDS011;3885;51.474;-2.576;2022-07-29T12:33:09;5.93;;;1.20;;
7685;SDS011;3885;51.474;-2.576;2022-07-29T12:35:37;1.43;;;0.90;;
7685;SDS011;3885;51.474;-2.576;2022-07-29T12:38:05;1.73;;;1.00;;
7685;SDS011;3885;51.474;-2.576;2022-07-29T12:40:33;1.37;;;1.03;;
7685;SDS011;3885;51.474;-2.576;2022-07-29T12:43:07;1.40;;;0.83;;
7685;SDS011;3885;51.474;-2.576;2022-07-29T12:45:37;1.67;;;1.00;;
7685;SDS011;3885;51.474;-2.576;2022-07-29T12:48:05;3.37;;;1.20;;
7685;SDS011;3885;51.474;-2.576;2022-07-29T12:50:34;12.03;;;1.03;;
7685;SDS011;3885;51.474;-2.576;2022-07-29T12:53:08;2.30;;;1.00;;
7685;SDS011;3885;51.474;-2.576;2022-07-29T12:55:40;1.27;;;0.80;;
7685;SDS011;3885;51.474;-2.576;2022-07-29T12:58:09;1.93;;;1.00;;
7685;SDS011;3885;51.474;-2.576;2022-07-29T13:00:36;2.13;;;1.10;;
7685;SDS011;3885;51.474;-2.576;2022-07-29T13:03:03;1.47;;;1.07;;
7685;SDS011;3885;51.474;-2.576;2022-07-29T13:05:40;2.73;;;1.73;;
7685;SDS011;3885;51.474;-2.576;2022-07-29T13:08:12;1.27;;;1.00;;
7685;SDS011;3885;51.474;-2.576;2022-07-29T13:10:41;2.97;;;1.50;;
7685;SDS011;3885;51.474;-2.576;2022-07-29T13:13:08;3.80;;;1.00;;
7685;SDS011;3885;51.474;-2.576;2022-07-29T13:15:37;5.80;;;1.20;;
7685;SDS011;3885;51.474;-2.576;2022-07-29T13:18:25;9.70;;;1.03;;
7685;SDS011;3885;51.474;-2.576;2022-07-29T13:20:53;2.03;;;1.03;;
7685;SDS011;3885;51.474;-2.576;2022-07-29T13:23:20;3.13;;;1.00;;
7685;SDS011;3885;51.474;-2.576;2022-07-29T13:25:48;3.03;;;1.00;;
7685;SDS011;3885;51.474;-2.576;2022-07-29T13:28:16;2.57;;;1.10;;
7685;SDS011;3885;51.474;-2.576;2022-07-29T13:30:43;6.30;;;1.87;;
7685;SDS011;3885;51.474;-2.576;2022-07-29T13:33:09;4.00;;;1.23;;
7685;SDS011;3885;51.474;-2.576;2022-07-29T13:35:36;1.17;;;0.90;;
7685;SDS011;3885;51.474;-2.576;2022-07-29T13:38:03;1.03;;;0.97;;
7685;SDS011;3885;51.474;-2.576;2022-07-29T13:40:30;6.33;;;0.90;;
7685;SDS011;3885;51.474;-2.576;2022-07-29T13:43:01;1.23;;;1.00;;
7685;SDS011;3885;51.474;-2.576;2022-07-29T13:45:28;1.23;;;0.90;;
7685;SDS011;3885;51.474;-2.576;2022-07-29T13:47:55;1.13;;;0.90;;
7685;SDS011;3885;51.474;-2.576;2022-07-29T13:50:22;1.27;;;0.90;;
7685;SDS011;3885;51.474;-2.576;2022-07-29T13:52:49;0.87;;;0.77;;
7685;SDS011;3885;51.474;-2.576;2022-07-29T13:55:16;0.90;;;0.90;;
7685;SDS011;3885;51.474;-2.576;2022-07-29T13:57:43;3.47;;;1.20;;
7685;SDS011;3885;51.474;-2.576;2022-07-29T14:00:12;2.00;;;1.17;;
7685;SDS011;3885;51.474;-2.576;2022-07-29T14:02:40;1.47;;;0.90;;
7685;SDS011;3885;51.474;-2.576;2022-07-29T14:05:07;1.10;;;1.00;;
7685;SDS011;3885;51.474;-2.576;2022-07-29T14:07:35;3.43;;;1.20;;
7685;SDS011;3885;51.474;-2.576;2022-07-29T14:10:03;1.27;;;0.93;;
7685;SDS011;3885;51.474;-2.576;2022-07-29T14:12:31;3.13;;;0.90;;
7685;SDS011;3885;51.474;-2.576;2022-07-29T14:14:58;0.73;;;0.73;;
7685;SDS011;3885;51.474;-2.576;2022-07-29T14:17:26;1.57;;;1.10;;
7685;SDS011;3885;51.474;-2.576;2022-07-29T14:19:53;4.67;;;0.90;;
7685;SDS011;3885;51.474;-2.576;2022-07-29T14:22:20;0.80;;;0.80;;
7685;SDS011;3885;51.474;-2.576;2022-07-29T14:24:47;1.02;;;0.82;;
7685;SDS011;3885;51.474;-2.576;2022-07-29T14:27:14;2.00;;;0.80;;
7685;SDS011;3885;51.474;-2.576;2022-07-29T14:29:40;1.70;;;0.77;;
7685;SDS011;3885;51.474;-2.576;2022-07-29T14:32:08;0.90;;;0.82;;
7685;SDS011;3885;51.474;-2.576;2022-07-29T14:34:37;9.35;;;1.13;;
7685;SDS011;3885;51.474;-2.576;2022-07-29T14:37:05;3.03;;;1.35;;
7685;SDS011;3885;51.474;-2.576;2022-07-29T14:39:34;2.13;;;1.30;;
7685;SDS011;3885;51.474;-2.576;2022-07-29T14:42:02;3.13;;;1.00;;
7685;SDS011;3885;51.474;-2.576;2022-07-29T14:44:29;2.53;;;1.38;;
7685;SDS011;3885;51.474;-2.576;2022-07-29T14:46:57;8.32;;;1.17;;
7685;SDS011;3885;51.474;-2.576;2022-07-29T14:49:24;1.20;;;0.93;;
7685;SDS011;3885;51.474;-2.576;2022-07-29T14:51:52;0.90;;;0.77;;
7685;SDS011;3885;51.474;-2.576;2022-07-29T14:54:19;0.82;;;0.80;;
7685;SDS011;3885;51.474;-2.576;2022-07-29T14:56:46;1.52;;;1.00;;
7685;SDS011;3885;51.474;-2.576;2022-07-29T14:59:16;1.45;;;0.98;;
7685;SDS011;3885;51.474;-2.576;2022-07-29T15:01:43;6.18;;;1.48;;
7685;SDS011;3885;51.474;-2.576;2022-07-29T15:04:10;3.55;;;1.48;;
7685;SDS011;3885;51.474;-2.576;2022-07-29T15:06:37;1.50;;;1.40;;
7685;SDS011;3885;51.474;-2.576;2022-07-29T15:09:05;1.30;;;1.02;;
7685;SDS011;3885;51.474;-2.576;2022-07-29T15:11:32;1.20;;;1.00;;
7685;SDS011;3885;51.474;-2.576;2022-07-29T15:13:59;3.53;;;1.85;;
7685;SDS011;3885;51.474;-2.576;2022-07-29T15:16:26;1.92;;;1.17;;
7685;SDS011;3885;51.474;-2.576;2022-07-29T15:18:53;1.63;;;1.00;;
7685;SDS011;3885;51.474;-2.576;2022-07-29T15:21:22;3.30;;;1.00;;